Time;durP1;ratioP1;P1;durP2;ratioP2;P2;SDS_P1;SDS_P2;PMS_P1;PMS_P2;Temp;Humidity;BMP_temperature;BMP_pressure;BME280_temperature;BME280_humidity;BME280_pressure;Samples;Min_cycle;Max_cycle;Signal;HPM_P1;HPM_P2
2020/12/19 00:01:48;;;;;;;24.85;17.80;;;;;;;5.92;93.32;101450.38;5024335;28;20060;-73
2020/12/19 00:04:14;;;;;;;22.10;17.48;;;;;;;5.94;93.21;101443.19;5021383;28;20123;-73
2020/12/19 00:06:46;;;;;;;22.25;16.52;;;;;;;5.94;93.17;101442.31;5044198;28;20116;-78
2020/12/19 00:09:12;;;;;;;23.02;17.58;;;;;;;5.77;93.57;101414.38;5038445;28;20068;-74
2020/12/19 00:11:40;;;;;;;23.15;17.83;;;;;;;5.93;93.75;101438.84;5021129;28;20072;-74
2020/12/19 00:14:06;;;;;;;;;;;;;;;5.91;93.34;101435.44;5044601;28;20076;-76
2020/12/19 00:16:32;;;;;;;24.20;18.08;;;;;;;5.88;93.14;101429.53;5033177;28;19964;-76
2020/12/19 00:18:57;;;;;;;26.60;19.45;;;;;;;5.79;93.80;101423.91;5032320;28;20784;-73
2020/12/19 00:21:23;;;;;;;25.58;18.42;;;;;;;5.87;93.78;101425.19;5031803;28;20068;-76
2020/12/19 00:23:48;;;;;;;22.27;17.52;;;;;;;5.88;94.19;101416.28;5031564;28;20111;-77
2020/12/19 00:26:14;;;;;;;25.63;18.65;;;;;;;5.89;93.66;101410.88;5043726;28;20116;-77
2020/12/19 00:28:40;;;;;;;24.70;17.35;;;;;;;5.83;93.42;101395.41;5028163;28;20567;-74
2020/12/19 00:31:06;;;;;;;27.60;18.98;;;;;;;5.90;93.37;101401.97;5035857;28;20045;-74
2020/12/19 00:33:31;;;;;;;29.42;18.77;;;;;;;5.89;93.13;101402.09;5026340;28;20065;-77
2020/12/19 00:35:57;;;;;;;25.95;19.02;;;;;;;5.84;93.21;101397.09;5007912;28;20148;-76
2020/12/19 00:38:22;;;;;;;26.75;18.23;;;;;;;5.85;93.82;101397.94;5055138;28;20127;-76
2020/12/19 00:40:48;;;;;;;26.83;19.17;;;;;;;5.74;93.08;101372.22;5060152;28;20028;-76
2020/12/19 00:43:14;;;;;;;28.00;18.95;;;;;;;5.85;93.53;101387.34;5014214;28;20569;-76
2020/12/19 00:45:39;;;;;;;26.88;19.02;;;;;;;5.88;93.12;101390.63;5022374;28;20049;-76
2020/12/19 00:48:05;;;;;;;25.88;18.38;;;;;;;5.90;92.94;101393.19;5026798;28;20135;-77
2020/12/19 00:50:30;;;;;;;23.73;17.48;;;;;;;5.88;92.56;101392.44;5024236;28;20116;-76
2020/12/19 00:52:56;;;;;;;26.40;18.92;;;;;;;5.73;92.87;101368.72;5027688;28;20143;-77
2020/12/19 00:55:21;;;;;;;26.52;18.85;;;;;;;5.88;93.29;101392.44;5024610;28;20127;-74
2020/12/19 00:57:47;;;;;;;23.67;17.35;;;;;;;5.89;93.02;101389.66;5041635;28;20112;-77
2020/12/19 01:00:12;;;;;;;24.58;17.73;;;;;;;5.85;93.02;101392.66;5012597;28;20759;-76
2020/12/19 01:02:38;;;;;;;24.52;18.10;;;;;;;5.85;93.08;101384.69;5014332;28;20477;-76
2020/12/19 01:05:05;;;;;;;26.95;18.00;;;;;;;5.87;92.83;101375.69;5039927;28;20115;-77
2020/12/19 01:07:31;;;;;;;23.20;17.85;;;;;;;5.92;92.44;101378.00;5026516;28;20643;-74
2020/12/19 01:09:57;;;;;;;26.58;18.33;;;;;;;5.93;92.06;101379.69;5021302;28;20117;-74
2020/12/19 01:12:23;;;;;;;23.98;17.70;;;;;;;5.93;92.51;101377.91;5010382;28;20136;-76
2020/12/19 01:14:48;;;;;;;26.30;17.42;;;;;;;5.91;92.22;101368.34;5052071;28;20039;-76
2020/12/19 01:17:14;;;;;;;24.40;17.40;;;;;;;5.86;92.61;101373.97;5029939;28;20132;-74
2020/12/19 01:19:39;;;;;;;25.02;16.77;;;;;;;5.88;92.33;101379.19;5043148;28;20163;-74
2020/12/19 01:22:06;;;;;;;23.27;17.30;;;;;;;5.88;92.01;101374.72;5024347;28;20123;-76
2020/12/19 01:24:32;;;;;;;23.15;16.23;;;;;;;5.74;92.14;101354.53;5050621;28;20109;-76
2020/12/19 01:26:58;;;;;;;21.52;16.75;;;;;;;5.77;91.71;101356.09;5024528;28;20448;-76
2020/12/19 01:29:23;;;;;;;21.98;16.27;;;;;;;5.81;92.11;101371.66;5037745;28;20112;-76
2020/12/19 01:31:49;;;;;;;23.40;16.20;;;;;;;5.80;92.40;101375.28;5011926;28;20111;-76
2020/12/19 01:34:14;;;;;;;23.42;17.13;;;;;;;5.80;92.27;101371.78;5023068;28;20116;-76
2020/12/19 01:36:41;;;;;;;22.75;16.75;;;;;;;5.61;92.07;101340.47;5051012;28;20890;-76
2020/12/19 01:39:07;;;;;;;24.63;17.77;;;;;;;5.77;92.09;101364.06;5009140;28;20045;-77
2020/12/19 01:41:32;;;;;;;25.65;17.23;;;;;;;5.75;91.58;101365.97;5042359;28;20131;-76
2020/12/19 01:43:58;;;;;;;26.38;18.02;;;;;;;5.73;92.13;101370.50;5021561;28;20112;-77
2020/12/19 01:46:25;;;;;;;24.58;17.05;;;;;;;5.56;92.11;101347.88;5023721;28;20119;-76
2020/12/19 01:48:51;;;;;;;24.27;16.92;;;;;;;5.67;92.33;101366.50;5029045;28;20044;-73
2020/12/19 01:51:16;;;;;;;24.23;16.63;;;;;;;5.67;92.49;101377.97;5005013;28;20124;-76
2020/12/19 01:53:42;;;;;;;24.90;17.27;;;;;;;5.58;92.32;101345.97;5012221;28;20127;-76
2020/12/19 01:56:09;;;;;;;21.85;17.08;;;;;;;5.45;92.05;101338.91;5005001;28;20072;-74
2020/12/19 01:58:34;;;;;;;22.08;16.48;;;;;;;5.70;92.20;101366.28;5027380;28;20068;-76
2020/12/19 02:01:00;;;;;;;23.75;16.95;;;;;;;5.66;92.46;101363.03;5045922;28;20120;-77
2020/12/19 02:03:25;;;;;;;22.70;17.20;;;;;;;5.67;91.88;101354.13;5010106;28;20116;-76
2020/12/19 02:05:51;;;;;;;23.67;17.17;;;;;;;5.67;92.31;101353.25;5050642;28;20128;-76
2020/12/19 02:08:16;;;;;;;23.00;16.23;;;;;;;5.70;91.95;101358.34;4988642;28;20140;-76
2020/12/19 02:10:42;;;;;;;22.80;16.90;;;;;;;5.65;91.91;101358.69;5041883;28;20115;-76
2020/12/19 02:13:07;;;;;;;21.85;16.45;;;;;;;5.61;92.33;101353.72;5000609;28;20112;-76
2020/12/19 02:15:40;;;;;;;24.58;17.38;;;;;;;5.60;92.21;101352.03;5011722;28;20120;-76
2020/12/19 02:18:06;;;;;;;24.02;16.73;;;;;;;5.61;91.89;101348.41;5018858;28;20047;-76
2020/12/19 02:20:31;;;;;;;23.38;17.02;;;;;;;5.54;92.43;101347.13;5027563;28;20124;-76
2020/12/19 02:22:57;;;;;;;24.08;17.33;;;;;;;5.54;92.01;101347.13;5034476;28;20441;-76
2020/12/19 02:25:23;;;;;;;23.35;16.90;;;;;;;5.55;92.18;101355.00;4985093;28;20538;-76
2020/12/19 02:27:49;;;;;;;24.92;17.08;;;;;;;5.44;92.59;101329.25;5006405;28;20523;-76
2020/12/19 02:30:14;;;;;;;23.92;17.17;;;;;;;5.52;91.97;101355.19;4992330;28;20394;-76
2020/12/19 02:32:41;;;;;;;25.65;17.35;;;;;;;5.53;92.01;101343.66;5031923;28;20120;-76
2020/12/19 02:35:06;;;;;;;24.27;16.55;;;;;;;5.54;91.48;101340.06;5037273;28;20041;-73
2020/12/19 02:37:32;;;;;;;23.67;17.60;;;;;;;5.48;92.02;101332.53;5038802;28;20121;-77
2020/12/19 02:39:57;;;;;;;23.15;16.88;;;;;;;5.40;92.47;101341.00;5037668;28;20140;-76
2020/12/19 02:42:23;;;;;;;23.00;17.13;;;;;;;5.39;92.45;101336.66;5045546;28;20116;-76
2020/12/19 02:44:48;;;;;;;26.45;17.65;;;;;;;5.34;92.58;101339.63;5029611;28;20123;-76
2020/12/19 02:47:14;;;;;;;24.98;18.38;;;;;;;5.31;92.68;101331.91;5003202;28;20124;-81
2020/12/19 02:49:39;;;;;;;27.67;17.13;;;;;;;5.29;92.16;101333.84;5017760;28;20161;-76
2020/12/19 02:52:05;;;;;;;24.33;17.90;;;;;;;5.29;92.57;101325.03;5042108;28;20120;-76
2020/12/19 02:54:30;;;;;;;26.10;18.58;;;;;;;5.22;92.61;101321.97;5039413;28;20128;-76
2020/12/19 02:56:56;;;;;;;29.02;18.75;;;;;;;5.19;92.36;101319.53;5038986;28;20120;-76
2020/12/19 02:59:21;;;;;;;27.27;19.38;;;;;;;5.11;92.80;101324.53;5041676;28;20119;-73
2020/12/19 03:01:47;;;;;;;27.20;18.08;;;;;;;5.15;93.48;101312.78;5016611;28;20120;-75
2020/12/19 03:04:14;;;;;;;29.73;18.98;;;;;;;5.16;92.88;101307.38;5024605;28;20112;-75
2020/12/19 03:06:40;;;;;;;25.63;18.17;;;;;;;5.09;93.38;101299.97;5037011;28;20387;-75
2020/12/19 03:09:05;;;;;;;27.50;18.95;;;;;;;5.10;93.54;101297.19;5017557;28;20136;-76
2020/12/19 03:11:31;;;;;;;24.98;18.88;;;;;;;5.10;93.62;101296.38;5050029;28;20124;-74
2020/12/19 03:13:56;;;;;;;27.50;19.25;;;;;;;5.05;92.79;101289.59;5048223;28;20124;-75
2020/12/19 03:16:22;;;;;;;27.20;19.35;;;;;;;4.87;93.89;101261.78;5040653;28;20140;-75
2020/12/19 03:18:47;;;;;;;28.73;19.90;;;;;;;5.04;93.64;101292.34;5014001;28;20123;-73
2020/12/19 03:21:13;;;;;;;28.77;18.52;;;;;;;5.10;93.13;101285.78;5009948;28;20129;-75
2020/12/19 03:23:39;;;;;;;27.65;19.10;;;;;;;4.81;93.76;101239.25;5023061;28;20043;-73
2020/12/19 03:26:04;;;;;;;26.95;18.85;;;;;;;5.02;93.45;101273.91;5012436;28;20131;-72
2020/12/19 03:28:30;;;;;;;30.60;19.95;;;;;;;5.10;93.11;101283.97;5036148;28;20141;-75
2020/12/19 03:30:56;;;;;;;28.40;18.65;;;;;;;5.10;93.96;101283.13;5022134;28;20080;-75
2020/12/19 03:33:21;;;;;;;26.27;19.05;;;;;;;5.13;94.11;101275.81;5017385;28;20073;-73
2020/12/19 03:35:47;;;;;;;28.77;19.63;;;;;;;5.16;94.02;101285.34;5041367;28;20574;-75
2020/12/19 03:38:12;;;;;;;29.23;19.80;;;;;;;4.93;93.55;101245.47;5024252;28;20135;-75
2020/12/19 03:40:38;;;;;;;25.13;18.73;;;;;;;5.12;93.61;101270.66;5021861;28;20638;-75
2020/12/19 03:43:03;;;;;;;30.52;20.48;;;;;;;5.17;93.37;101277.31;4999313;28;20124;-75
2020/12/19 03:45:29;;;;;;;28.60;19.92;;;;;;;5.04;93.47;101242.91;5033038;28;20037;-76
2020/12/19 03:47:55;;;;;;;26.70;18.13;;;;;;;5.20;93.74;101269.16;5011983;28;20045;-75
2020/12/19 03:50:21;;;;;;;25.15;19.13;;;;;;;5.17;93.34;101272.03;5035415;28;20098;-77
2020/12/19 03:52:46;;;;;;;27.17;19.70;;;;;;;5.19;93.60;101267.47;5023129;28;20116;-75
2020/12/19 03:55:12;;;;;;;27.10;19.17;;;;;;;5.17;93.95;101269.38;5037952;28;20068;-75
2020/12/19 03:57:38;;;;;;;27.48;19.60;;;;;;;5.24;94.36;101256.56;5019413;28;20236;-75
2020/12/19 04:00:04;;;;;;;28.15;19.15;;;;;;;5.04;93.91;101216.47;5046074;28;20175;-76
2020/12/19 04:02:29;;;;;;;26.83;18.65;;;;;;;5.27;93.87;101255.50;5000555;28;20029;-76
2020/12/19 04:04:55;;;;;;;26.05;17.77;;;;;;;5.30;94.12;101242.88;5024482;28;20488;-77
2020/12/19 04:07:21;;;;;;;28.13;18.90;;;;;;;5.31;93.31;101234.00;5023726;28;20487;-77
2020/12/19 04:09:46;;;;;;;28.05;19.45;;;;;;;5.24;93.71;101224.81;5013220;28;20516;-75
2020/12/19 04:12:12;;;;;;;28.77;19.02;;;;;;;5.31;93.40;101225.22;5008896;28;20486;-75
2020/12/19 04:14:39;;;;;;;29.15;19.17;;;;;;;5.33;93.39;101221.50;5027369;28;20450;-75
2020/12/19 04:17:09;;;;;;;26.00;18.48;;;;;;;5.25;93.85;101205.34;5022845;28;20045;-80
2020/12/19 04:19:36;;;;;;;28.55;19.10;;;;;;;5.35;93.33;101214.28;5034542;28;20041;-75
2020/12/19 04:22:01;;;;;;;24.65;18.13;;;;;;;5.11;94.02;101182.47;5021306;28;20045;-77
2020/12/19 04:24:27;;;;;;;27.98;17.75;;;;;;;5.38;93.37;101204.44;5014883;28;20060;-75
2020/12/19 04:26:52;;;;;;;27.67;18.67;;;;;;;5.39;93.61;101203.50;5045612;28;20127;-75
2020/12/19 04:29:18;;;;;;;24.55;18.05;;;;;;;5.34;94.09;101199.38;5044787;28;20120;-75
2020/12/19 04:31:44;;;;;;;26.92;18.63;;;;;;;5.33;93.76;101204.78;5021480;28;20813;-75
2020/12/19 04:34:09;;;;;;;27.02;18.27;;;;;;;5.36;94.09;101194.81;5022905;28;20125;-75
2020/12/19 04:36:35;;;;;;;25.55;18.20;;;;;;;5.27;94.33;101184.03;5044708;28;20116;-75
2020/12/19 04:39:00;;;;;;;27.20;18.92;;;;;;;5.36;93.76;101202.75;4989291;28;20136;-75
2020/12/19 04:41:26;;;;;;;27.50;18.20;;;;;;;5.39;93.86;101191.09;5021166;28;20131;-75
2020/12/19 04:43:52;;;;;;;27.75;18.90;;;;;;;5.38;94.14;101188.56;5033880;28;20064;-75
2020/12/19 04:46:18;;;;;;;28.63;18.00;;;;;;;5.37;93.38;101190.34;5040889;28;20570;-76
2020/12/19 04:48:43;;;;;;;26.63;18.30;;;;;;;5.35;93.40;101181.72;5010444;28;20140;-75
2020/12/19 04:51:09;;;;;;;28.48;17.73;;;;;;;5.38;93.31;101186.75;4993142;28;20571;-76
2020/12/19 04:53:34;;;;;;;24.88;17.88;;;;;;;5.38;93.79;101193.88;5018081;28;20124;-75
2020/12/19 04:56:00;;;;;;;24.02;17.65;;;;;;;5.36;93.74;101194.00;4993664;28;20061;-75
2020/12/19 04:58:26;;;;;;;26.75;17.65;;;;;;;5.33;93.39;101192.38;4986493;28;20120;-75
2020/12/19 05:00:51;;;;;;;26.70;18.75;;;;;;;5.35;93.73;101185.19;5050438;28;20074;-76
2020/12/19 05:03:17;;;;;;;26.17;18.23;;;;;;;5.05;93.97;101140.63;5022128;28;20116;-76
2020/12/19 05:05:45;;;;;;;25.33;18.02;;;;;;;5.30;93.50;101173.25;5046656;28;20120;-77
2020/12/19 05:08:11;;;;;;;25.63;17.50;;;;;;;5.27;94.30;101174.31;5037065;28;20061;-76
2020/12/19 05:10:37;;;;;;;26.45;18.77;;;;;;;5.25;93.78;101168.28;5028449;28;20509;-76
2020/12/19 05:13:02;;;;;;;25.45;18.30;;;;;;;5.06;94.10;101139.66;5028500;28;20037;-77
2020/12/19 05:15:28;;;;;;;27.63;18.52;;;;;;;5.21;94.07;101170.31;5020787;28;20120;-76
2020/12/19 05:17:54;;;;;;;26.85;17.70;;;;;;;5.19;94.52;101152.84;5014777;28;20128;-76
2020/12/19 05:20:24;;;;;;;27.15;18.27;;;;;;;4.86;93.76;101091.66;5021866;28;20082;-76
2020/12/19 05:22:52;;;;;;;25.67;17.77;;;;;;;5.19;93.34;101166.06;5031213;28;20063;-73
2020/12/19 05:25:20;;;;;;;25.17;19.05;;;;;;;5.18;93.89;101157.28;5016492;28;20493;-74
2020/12/19 05:27:46;;;;;;;25.30;17.77;;;;;;;5.16;93.85;101168.91;4992900;28;20045;-76
2020/12/19 05:30:12;;;;;;;27.13;19.60;;;;;;;4.96;94.03;101126.25;5022861;28;20067;-76
2020/12/19 05:32:48;;;;;;;27.27;18.50;;;;;;;5.04;93.84;101149.50;5005013;28;20037;-76
2020/12/19 05:35:15;;;;;;;24.73;17.27;;;;;;;5.13;93.76;101162.06;5009490;28;20075;-76
2020/12/19 05:37:40;;;;;;;26.92;18.98;;;;;;;5.13;93.74;101155.94;5034770;28;20041;-75
2020/12/19 05:40:10;;;;;;;26.00;18.13;;;;;;;5.18;93.65;101149.34;5049660;28;20155;-76
2020/12/19 05:42:36;;;;;;;24.45;16.95;;;;;;;5.19;93.87;101153.69;5047613;28;20060;-75
2020/12/19 05:45:02;;;;;;;24.55;17.88;;;;;;;5.19;94.37;101150.19;5029531;28;20150;-76
2020/12/19 05:47:28;;;;;;;26.98;18.10;;;;;;;5.06;93.84;101135.19;5008220;28;20025;-76
2020/12/19 05:49:53;;;;;;;27.88;17.65;;;;;;;5.20;93.70;101152.75;5031134;28;20577;-75
2020/12/19 05:52:19;;;;;;;29.27;17.80;;;;;;;5.06;94.54;101132.56;5023302;28;20121;-75
2020/12/19 05:54:44;;;;;;;27.40;18.92;;;;;;;5.17;93.96;101138.88;5014030;28;20145;-73
2020/12/19 05:57:10;;;;;;;26.30;18.17;;;;;;;5.23;94.03;101143.72;5007195;28;20124;-73
2020/12/19 05:59:36;;;;;;;28.67;17.83;;;;;;;5.08;94.17;101107.78;5017906;28;20111;-73
2020/12/19 06:02:01;;;;;;;27.50;18.13;;;;;;;5.14;94.57;101113.47;5001376;28;20121;-81
2020/12/19 06:04:27;;;;;;;24.13;16.88;;;;;;;5.24;93.99;101111.03;5006161;28;20101;-75
2020/12/19 06:06:53;;;;;;;22.50;16.50;;;;;;;5.43;93.83;101141.44;4995938;28;20169;-76
2020/12/19 06:09:18;;;;;;;22.60;16.58;;;;;;;5.35;93.59;101126.97;5014154;28;20084;-76
2020/12/19 06:12:08;;;;;;;26.02;16.50;;;;;;;5.45;93.57;101137.72;5003577;28;20132;-76
2020/12/19 06:14:35;;;;;;;26.02;17.08;;;;;;;5.49;93.26;101141.84;5019302;28;20040;-76
2020/12/19 06:17:08;;;;;;;37.78;17.42;;;;;;;5.49;93.93;101136.56;5028827;28;20037;-77
2020/12/19 06:19:33;;;;;;;25.10;17.73;;;;;;;5.51;93.19;101145.19;5016936;28;20041;-76
2020/12/19 06:21:59;;;;;;;25.90;17.20;;;;;;;5.54;93.71;101136.22;4999553;28;20124;-76
2020/12/19 06:24:43;;;;;;;26.23;17.63;;;;;;;5.61;93.58;101142.72;5019948;28;20100;-76
2020/12/19 06:27:18;;;;;;;25.48;17.35;;;;;;;5.60;93.53;101132.25;5023354;28;20044;-79
2020/12/19 06:29:43;;;;;;;25.92;17.70;;;;;;;5.64;93.50;101141.66;5011446;28;20135;-76
2020/12/19 06:32:09;;;;;;;25.33;17.65;;;;;;;5.64;92.80;101141.66;5007636;28;20132;-76
2020/12/19 06:34:35;;;;;;;25.25;17.20;;;;;;;5.62;92.86;101133.00;4994779;28;20486;-76
2020/12/19 06:37:01;;;;;;;27.48;18.13;;;;;;;5.57;92.91;101133.31;5057242;28;20150;-74
2020/12/19 06:39:27;;;;;;;24.02;17.75;;;;;;;5.57;93.79;101128.00;5018212;28;20049;-77
2020/12/19 06:41:58;;;;;;;25.83;17.88;;;;;;;5.46;93.65;101101.50;5008794;28;20136;-76
2020/12/19 06:44:27;;;;;;;25.92;18.27;;;;;;;5.63;93.62;101127.56;5029264;28;20064;-74
2020/12/19 06:46:53;;;;;;;24.48;17.55;;;;;;;5.55;93.86;101094.69;5044292;28;20049;-77
2020/12/19 06:49:22;;;;;;;28.95;18.27;;;;;;;5.70;93.77;101127.13;5001813;28;20037;-74
2020/12/19 06:52:06;;;;;;;;;;;;;;;5.73;93.74;101134.81;5030653;28;20124;-74
2020/12/19 06:54:39;;;;;;;23.00;17.45;;;;;;;5.45;93.50;101073.34;5034689;28;19923;-77
2020/12/19 06:57:26;;;;;;;26.45;17.40;;;;;;;5.75;93.07;101117.03;5023046;28;20042;-79
2020/12/19 06:59:52;;;;;;;25.27;17.08;;;;;;;5.81;93.57;101114.75;5018447;28;20053;-74
2020/12/19 07:02:24;;;;;;;27.20;17.00;;;;;;;5.78;93.32;101100.91;5030719;28;20037;-76
2020/12/19 07:04:49;;;;;;;21.95;16.83;;;;;;;5.78;93.07;101106.19;5019444;28;20047;-76
2020/12/19 07:07:21;;;;;;;24.75;17.85;;;;;;;5.80;93.20;101099.00;5013495;28;20041;-74
2020/12/19 07:09:54;;;;;;;28.65;18.02;;;;;;;5.83;92.78;101096.13;5021825;28;20039;-76
2020/12/19 07:12:39;;;;;;;26.70;18.25;;;;;;;5.70;93.19;101071.53;5021227;28;20048;-74
2020/12/19 07:15:08;;;;;;;27.20;18.42;;;;;;;5.85;93.13;101103.94;5001641;28;20048;-77
2020/12/19 07:17:45;;;;;;;27.80;18.80;;;;;;;5.79;93.17;101087.53;5016474;28;20120;-77
2020/12/19 07:20:10;;;;;;;28.08;18.50;;;;;;;6.00;93.12;101126.66;4996177;28;20053;-76
2020/12/19 07:22:36;;;;;;;28.65;18.67;;;;;;;6.04;92.92;101121.97;5019538;28;20063;-76
2020/12/19 07:25:21;;;;;;;27.60;18.80;;;;;;;6.02;93.06;101116.78;5024891;28;20056;-77
2020/12/19 07:27:46;;;;;;;28.40;19.08;;;;;;;6.02;92.78;101113.28;5032215;28;20128;-76
2020/12/19 07:30:12;;;;;;;29.33;19.27;;;;;;;5.98;92.86;101102.88;5022710;28;20546;-77
2020/12/19 07:32:37;;;;;;;31.58;18.70;;;;;;;5.98;92.51;101110.00;5013251;28;20476;-76
2020/12/19 07:35:03;;;;;;;28.50;19.88;;;;;;;5.86;93.04;101092.38;5032994;28;20131;-77
2020/12/19 07:37:28;;;;;;;28.20;18.83;;;;;;;5.95;93.59;101104.91;5009206;28;20061;-77
2020/12/19 07:40:07;;;;;;;28.05;19.10;;;;;;;5.94;93.54;101105.88;5018081;28;20139;-74
2020/12/19 07:42:32;;;;;;;28.98;19.73;;;;;;;5.93;93.49;101109.50;5042363;28;20037;-74
2020/12/19 07:44:58;;;;;;;31.38;20.58;;;;;;;5.85;93.88;101101.28;5041011;28;20112;-76
2020/12/19 07:47:23;;;;;;;27.98;19.27;;;;;;;5.87;93.76;101099.38;5003737;28;20612;-77
2020/12/19 07:49:49;;;;;;;27.17;19.17;;;;;;;6.01;94.40;101114.25;4993478;28;20403;-75
2020/12/19 07:52:24;;;;;;;28.95;18.92;;;;;;;5.96;94.29;101085.41;5044728;28;20496;-74
2020/12/19 07:54:56;;;;;;;27.65;18.88;;;;;;;6.12;93.93;101123.06;5019103;28;20045;-73
2020/12/19 07:57:23;;;;;;;27.75;18.90;;;;;;;6.20;93.68;101129.56;5018640;28;20075;-77
2020/12/19 07:59:48;;;;;;;28.27;19.17;;;;;;;6.29;93.39;101107.69;5030713;28;20081;-76
2020/12/19 08:02:16;;;;;;;28.10;19.17;;;;;;;6.12;93.29;101083.31;5027002;28;20120;-77
2020/12/19 08:04:52;;;;;;;28.67;18.40;;;;;;;6.31;93.27;101091.66;5013843;28;20033;-78
2020/12/19 08:07:18;;;;;;;28.13;18.80;;;;;;;6.23;93.20;101087.81;5031616;28;20119;-77
2020/12/19 08:09:44;;;;;;;28.40;19.27;;;;;;;6.45;92.93;101107.31;5015302;28;20391;-77
2020/12/19 08:12:09;;;;;;;27.35;18.08;;;;;;;6.48;92.51;101111.53;5025406;28;20124;-78
2020/12/19 08:14:35;;;;;;;26.33;18.35;;;;;;;6.53;93.06;101118.16;5021910;28;20124;-77
2020/12/19 08:17:06;;;;;;;25.90;18.15;;;;;;;6.54;93.22;101097.81;5021002;28;20120;-77
2020/12/19 08:19:36;;;;;;;29.15;18.40;;;;;;;6.70;92.63;101110.69;5022076;28;20038;-74
2020/12/19 08:22:04;;;;;;;26.38;17.38;;;;;;;6.57;92.33;101082.50;5033003;28;20064;-77
2020/12/19 08:24:29;;;;;;;25.13;17.33;;;;;;;6.81;92.02;101120.47;5016351;28;20040;-78
2020/12/19 08:27:33;;;;;;;25.95;18.20;;;;;;;6.91;91.54;101113.47;5014252;28;20119;-77
2020/12/19 08:30:19;;;;;;;23.60;16.85;;;;;;;6.82;91.40;101098.28;5045732;28;20148;-77
2020/12/19 08:32:46;;;;;;;25.73;18.00;;;;;;;7.01;91.14;101126.84;5011557;28;20038;-78
2020/12/19 08:35:22;;;;;;;23.83;17.83;;;;;;;7.01;91.47;101117.06;5027944;28;20049;-77
2020/12/19 08:37:48;;;;;;;26.02;18.05;;;;;;;7.06;91.47;101124.63;5013719;28;20056;-74
2020/12/19 08:40:15;;;;;;;23.92;16.88;;;;;;;7.15;90.85;101117.75;5022659;28;20518;-78
2020/12/19 08:42:41;;;;;;;21.00;16.50;;;;;;;7.10;91.05;101104.03;5028924;28;20120;-76
2020/12/19 08:45:11;;;;;;;23.98;16.88;;;;;;;7.22;90.96;101111.00;5005656;28;20422;-77
2020/12/19 08:47:38;;;;;;;22.13;16.48;;;;;;;7.20;90.70;101094.34;5002936;28;20087;-78
2020/12/19 08:50:04;;;;;;;22.95;16.02;;;;;;;7.35;90.29;101118.78;4991347;28;20119;-75
2020/12/19 08:52:29;;;;;;;23.13;16.30;;;;;;;7.41;90.26;101109.47;5018962;28;20141;-74
2020/12/19 08:54:59;;;;;;;22.77;16.42;;;;;;;7.47;90.13;101090.41;5007008;28;20123;-77
2020/12/19 08:57:28;;;;;;;22.90;16.98;;;;;;;7.39;89.85;101071.63;5007647;28;20562;-77
2020/12/19 09:00:08;;;;;;;23.58;17.00;;;;;;;7.59;89.85;101094.69;4995713;28;20036;-77
2020/12/19 09:02:38;;;;;;;23.75;15.55;;;;;;;7.37;89.59;101060.28;5025676;28;20296;-77
2020/12/19 09:05:05;;;;;;;20.20;15.85;;;;;;;7.57;89.25;101078.03;4991929;28;20157;-80
2020/12/19 09:07:30;;;;;;;18.98;14.85;;;;;;;7.74;89.19;101095.22;4996348;28;20132;-77
2020/12/19 09:09:56;;;;;;;22.65;14.77;;;;;;;7.78;88.87;101093.16;5012077;28;20547;-76
2020/12/19 09:12:22;;;;;;;19.20;14.93;;;;;;;7.52;89.01;101040.41;5022250;28;20356;-73
2020/12/19 09:14:48;;;;;;;20.10;15.70;;;;;;;7.78;88.56;101071.91;5019264;28;20049;-73
2020/12/19 09:17:27;;;;;;;20.05;14.55;;;;;;;7.84;88.04;101059.91;5028794;28;20040;-74
2020/12/19 09:20:03;;;;;;;19.15;14.32;;;;;;;8.06;88.64;101089.00;5019233;28;20395;-77
2020/12/19 09:22:29;;;;;;;17.58;13.82;;;;;;;8.23;87.55;101092.88;4992819;28;20048;-77
2020/12/19 09:24:55;;;;;;;18.38;14.68;;;;;;;8.29;87.51;101086.19;5002670;28;20036;-77
2020/12/19 09:27:23;;;;;;;18.50;13.68;;;;;;;8.35;87.22;101084.81;5030865;28;20119;-77
2020/12/19 09:29:48;;;;;;;19.17;13.77;;;;;;;8.56;86.64;101083.00;4993611;28;20177;-77
2020/12/19 09:32:14;;;;;;;17.50;13.63;;;;;;;8.56;86.58;101082.13;5030308;28;20029;-74
2020/12/19 09:34:39;;;;;;;18.85;13.18;;;;;;;8.55;86.43;101086.63;5029883;28;20045;-75
2020/12/19 09:37:05;;;;;;;18.33;14.60;;;;;;;8.55;86.17;101077.81;4990401;28;20048;-74
2020/12/19 09:39:30;;;;;;;16.67;13.05;;;;;;;8.56;86.65;101083.00;5009462;28;20057;-74
2020/12/19 09:41:56;;;;;;;15.85;12.82;;;;;;;8.40;86.50;101064.00;5016605;28;20064;-75
2020/12/19 09:44:21;;;;;;;18.33;13.50;;;;;;;8.53;86.49;101077.09;5002346;28;20504;-78
2020/12/19 09:46:47;;;;;;;16.85;14.05;;;;;;;8.48;87.03;101068.66;5030219;28;20159;-78
2020/12/19 09:49:13;;;;;;;17.33;13.48;;;;;;;8.51;86.82;101076.38;5031007;28;20055;-77
2020/12/19 09:51:39;;;;;;;19.38;13.40;;;;;;;8.50;87.09;101088.00;4985929;28;20033;-77
2020/12/19 09:54:05;;;;;;;18.20;13.45;;;;;;;8.37;86.65;101066.91;5000082;28;20507;-77
2020/12/19 09:56:37;;;;;;;19.55;13.50;;;;;;;8.45;87.42;101090.19;4987694;28;20515;-78
2020/12/19 09:59:03;;;;;;;18.40;13.50;;;;;;;8.48;87.16;101090.81;5011091;28;20055;-79
2020/12/19 10:01:29;;;;;;;17.25;13.80;;;;;;;8.51;87.16;101093.19;5001153;28;20147;-77
2020/12/19 10:03:54;;;;;;;18.30;13.73;;;;;;;8.48;87.25;101090.81;5012679;28;20542;-77
2020/12/19 10:06:20;;;;;;;19.23;13.60;;;;;;;8.45;87.12;101063.59;5020658;28;20140;-77
2020/12/19 10:08:45;;;;;;;19.02;14.15;;;;;;;8.55;86.91;101078.66;5022521;28;20123;-77
2020/12/19 10:11:11;;;;;;;18.13;13.32;;;;;;;8.50;86.99;101056.09;5036955;28;20041;-77
2020/12/19 10:13:36;;;;;;;17.02;13.70;;;;;;;8.65;87.44;101064.53;5005378;28;20128;-77
2020/12/19 10:16:04;;;;;;;17.10;13.02;;;;;;;8.67;86.70;101067.91;5028550;28;20119;-76
2020/12/19 10:18:30;;;;;;;18.50;11.77;;;;;;;8.69;86.88;101056.13;4995861;28;20033;-77
2020/12/19 10:20:56;;;;;;;19.50;13.50;;;;;;;8.73;86.50;101057.56;5021693;28;20127;-77
2020/12/19 10:23:21;;;;;;;16.65;13.00;;;;;;;8.53;87.03;101019.41;4989833;28;20113;-77
2020/12/19 10:25:47;;;;;;;17.10;13.05;;;;;;;8.78;86.99;101051.00;5020451;28;21430;-79
2020/12/19 10:28:12;;;;;;;17.10;12.70;;;;;;;8.82;86.92;101047.09;5034797;28;20566;-79
2020/12/19 10:30:38;;;;;;;16.10;12.48;;;;;;;8.88;87.34;101051.84;4975496;28;20124;-79
2020/12/19 10:33:03;;;;;;;15.05;11.50;;;;;;;8.65;86.62;100990.03;5019023;28;20123;-78
2020/12/19 10:35:29;;;;;;;18.73;12.15;;;;;;;8.98;86.75;101039.41;4999248;28;20036;-78
2020/12/19 10:37:54;;;;;;;17.63;12.30;;;;;;;9.03;86.63;101023.84;5016913;28;20231;-78
2020/12/19 10:40:20;;;;;;;16.02;12.25;;;;;;;9.11;85.58;101023.16;5017143;28;20029;-78
2020/12/19 10:42:45;;;;;;;16.20;12.23;;;;;;;9.09;86.08;101013.66;5017055;28;20124;-78
2020/12/19 10:45:11;;;;;;;17.55;12.65;;;;;;;9.01;85.86;101017.00;5023706;28;20117;-78
2020/12/19 10:47:36;;;;;;;14.07;11.43;;;;;;;9.10;85.69;101013.50;4990370;28;20039;-78
2020/12/19 10:50:02;;;;;;;14.20;12.13;;;;;;;9.01;85.66;100996.53;5004510;28;20040;-79
2020/12/19 10:52:28;;;;;;;17.05;12.63;;;;;;;9.22;85.76;101027.53;5021384;28;20034;-78
2020/12/19 10:54:54;;;;;;;19.08;12.55;;;;;;;9.30;85.32;101022.34;5014113;28;20041;-79
2020/12/19 10:57:20;;;;;;;13.88;11.30;;;;;;;9.39;85.23;101030.44;5011174;28;20040;-79
2020/12/19 10:59:45;;;;;;;16.70;11.75;;;;;;;9.41;85.07;101031.16;5018146;28;20037;-78
2020/12/19 11:02:11;;;;;;;18.58;13.10;;;;;;;9.44;85.18;101033.53;5009947;28;20135;-78
2020/12/19 11:04:36;;;;;;;15.73;11.98;;;;;;;9.43;85.46;101023.88;5008028;28;20053;-78
2020/12/19 11:07:02;;;;;;;16.10;11.90;;;;;;;9.64;84.92;101039.69;5005965;28;20120;-76
2020/12/19 11:09:27;;;;;;;13.10;10.68;;;;;;;9.75;84.26;101036.88;5015942;28;20068;-78
2020/12/19 11:11:53;;;;;;;13.13;10.90;;;;;;;9.74;84.79;101040.50;5029017;28;20128;-78
2020/12/19 11:14:20;;;;;;;14.48;10.93;;;;;;;9.58;85.21;101021.59;5010300;28;20521;-78
2020/12/19 11:16:45;;;;;;;13.35;11.23;;;;;;;9.71;85.09;101038.13;5025082;28;20286;-79